»·PEaware :: N747KT KSBP-KHAF

N747KT :: KSBP-KHAF

FLIGHT INFORMATION

Flight Status: Arrived
Operator: Privately registered:
United States
More flights under this callsign
Pilot: Michael M. (12217)
Aircraft: ECLIPSE 500
(EA50)
More flights by this aircraft type
Origin: KSBP San Luis Co Regl
United States
Destination: KHAF Half Moon Bay
United States
More flights between these airports :: More routes between these airports
Route: +CREPE3 PRB V25 SAPID KHAF
File this flight plan on PilotEdge
Remarks:
Altitude:
(Current/Filed)
9,000ft
Speed:
(Current/Filed)
250kts
Departed: 08-Sep-17 05:36 PM
Arrived: 08-Sep-17 06:20 PM
Distance/Time
Traveled:
163nm/0:43
Distance/Time
To Go:
Arrived

Flight Plot

Page will automatically refresh every two minutes.

Flight plan parsing failed; only flown route is shown


Map Options




Map Legend


Flown Route
Filed Route
Departure Airport
Arrival Airport
Navaid (VOR, NDB)
Fix

Horizontal Profiles

Position Reports

Time Latitude Longitude Heading Altitude Ground
Speed
08-Sep-17 17:25 35.238836 -120.641188 350 214ft 0kts
08-Sep-17 17:26 35.238836 -120.641188 350 214ft 0kts
08-Sep-17 17:27 35.238836 -120.641188 350 214ft 0kts
08-Sep-17 17:28 35.238836 -120.641188 350 214ft 0kts
08-Sep-17 17:29 35.238836 -120.641188 350 214ft 0kts
08-Sep-17 17:30 35.238836 -120.641188 350 214ft 0kts
08-Sep-17 17:31 35.238836 -120.641188 350 214ft 0kts
08-Sep-17 17:32 35.238836 -120.641188 350 214ft 0kts
08-Sep-17 17:33 35.238836 -120.641188 350 214ft 0kts
08-Sep-17 17:34 35.238894 -120.641272 282 214ft 0kts
08-Sep-17 17:35 35.236340 -120.637346 124 214ft 21kts
08-Sep-17 17:36 35.233720 -120.632731 124 214ft 16kts
08-Sep-17 17:37 35.233279 -120.632378 196 214ft 0kts
08-Sep-17 17:38 35.233279 -120.632378 196 214ft 0kts
08-Sep-17 17:39 35.232782 -120.632863 258 214ft 12kts
08-Sep-17 17:40 35.247401 -120.658768 307 1357ft 157kts
08-Sep-17 17:41 35.278884 -120.717704 302 4048ft 233kts
08-Sep-17 17:42 35.312454 -120.773980 301 7970ft 220kts
08-Sep-17 17:43 35.366862 -120.838685 350 8376ft 326kts
08-Sep-17 17:44 35.450235 -120.795653 30 9297ft 317kts
08-Sep-17 17:45 35.517463 -120.741333 42 7920ft 275kts
08-Sep-17 17:46 35.577288 -120.697274 30 7999ft 244kts
08-Sep-17 17:47 35.633570 -120.655930 32 8002ft 272kts
08-Sep-17 17:48 35.701854 -120.664009 324 8002ft 271kts
08-Sep-17 17:49 35.764497 -120.718840 320 8001ft 281kts
08-Sep-17 17:50 35.826667 -120.777558 319 8001ft 282kts
08-Sep-17 17:51 35.888092 -120.836883 319 8001ft 281kts
08-Sep-17 17:52 35.949513 -120.896693 319 8001ft 282kts
08-Sep-17 17:53 36.010853 -120.956657 319 8001ft 282kts
08-Sep-17 17:54 36.072042 -121.016640 319 8004ft 280kts
08-Sep-17 17:55 36.132341 -121.075875 319 8012ft 283kts
08-Sep-17 17:56 36.193624 -121.136205 319 8024ft 281kts
08-Sep-17 17:57 36.254460 -121.196217 319 8033ft 280kts
08-Sep-17 17:58 36.315148 -121.256168 319 8036ft 279kts
08-Sep-17 17:59 36.375597 -121.316011 319 7990ft 279kts
08-Sep-17 18:00 36.436182 -121.376132 319 7990ft 279kts
08-Sep-17 18:01 36.496211 -121.435830 319 7990ft 279kts
08-Sep-17 18:02 36.556672 -121.496100 319 7993ft 279kts
08-Sep-17 18:03 36.611779 -121.551111 319 7992ft 279kts
08-Sep-17 18:04 36.670076 -121.613973 309 7990ft 277kts
08-Sep-17 18:05 36.719887 -121.686649 308 7991ft 277kts
08-Sep-17 18:06 36.769690 -121.760323 308 7995ft 278kts
08-Sep-17 18:07 36.819486 -121.834375 308 7997ft 281kts
08-Sep-17 18:08 36.869265 -121.908608 308 8000ft 282kts
08-Sep-17 18:09 36.919375 -121.983428 308 8001ft 282kts
08-Sep-17 18:10 36.969574 -122.058483 310 8000ft 281kts
08-Sep-17 18:11 37.032547 -122.103975 312 8653ft 251kts
08-Sep-17 18:12 37.076291 -122.173606 301 7999ft 297kts
08-Sep-17 18:13 37.121202 -122.256846 306 7488ft 278kts
08-Sep-17 18:14 37.163530 -122.330728 307 5602ft 255kts
08-Sep-17 18:15 37.203168 -122.399039 306 3978ft 206kts
08-Sep-17 18:16 37.232131 -122.448960 305 3256ft 170kts
08-Sep-17 18:17 37.256439 -122.491457 305 2838ft 151kts
08-Sep-17 18:18 37.293116 -122.496943 43 1338ft 180kts
08-Sep-17 18:19 37.324379 -122.458305 43 1201ft 149kts
08-Sep-17 18:20 37.366549 -122.445624 0 1142ft 185kts
08-Sep-17 18:21 37.418623 -122.444599 359 1354ft 189kts
08-Sep-17 18:22 37.459446 -122.461104 346 1457ft 178kts
08-Sep-17 18:23 37.498448 -122.483711 314 522ft 108kts
08-Sep-17 18:24 37.515673 -122.503818 318 66ft 35kts
08-Sep-17 18:25 37.518839 -122.506428 48 66ft 0kts
08-Sep-17 18:26 37.518153 -122.504100 137 66ft 17kts
08-Sep-17 18:27 37.515362 -122.499489 125 66ft 19kts
08-Sep-17 18:28 37.513921 -122.495852 318 66ft 3kts
08-Sep-17 18:29 37.514008 -122.496291 298 66ft 0kts

Navigation Log

Ident Type
Flight plan parsing failed, navigation log unavailable